Карточка аэропорта ULMM

Внимание!
Информация на этой странице в стадии наполнения.
Если вы не увидели какой-то информации, или заметили неточность - пожалуйста сообщите нам!
Спасибо!
Команда RU-STAFF
Название аэропортаМурманск
Название аэропорта (англ.)Murmansk
Превышение262 ft. (79.9 m.)
Координаты68°46.902', 32°45.066'
Высота перехода900m
Эшелон переходаQFE>=753mm:FL050; QFE<753=>727:FL060; QFE<727:FL070
Коды ответчика3101-3117
Зона ОрВДМурманск РПИ (ULMM)
Данные METARULMM 241530Z 14004MPS 9999 BKN018 09/05 Q1004 R13/090070 NOSIG RMK QFE746
Проноз погоды (TAF)ULMM 241350Z 2415/2515 14003G08MPS 9999 BKN016 BECMG 2418/2419 6000 -SHRA BKN011CB TEMPO 2419/2505 3100 -SHRA BKN007 BKN011CB BECMG 2505/2506 9999 NSW BKN016 TEMPO 2506/2512 -SHRA BKN016CB
NOTAMshow/hide NOTAM
AWOS   TABLE

Информация о ВПП

ВПП Длина ВПП (м.) Покрытие Курс ВПП Частота ILS
132500Асфальтобетон131110.3
312500Асфальтобетон311108.5

Диспетчерские позиции




Спутниковое изображение